Terminal Aerodrome Forecast
Issued by NWS Twin Cities, MN

Home | Current Version | Previous Version | Text Only | Print | Product List | Glossary Off
Versions: 1 2 3 4 5 6 7 8 9 10 11 12 13 14 15 16

930
FTUS43 KMPX 231131
TAFSTC
TAF
KSTC 231131Z 2312/2412 30010KT P6SM SKC
     FM231400 31015G22KT P6SM BKN030 OVC045
     FM231800 30017G26KT P6SM OVC050
     FM240100 30008KT P6SM SCT070=

USA.gov is the U.S. government's official web portal to all federal, state and local government web resources and services.